Aviator — V7NU9 — position and weather

sailwx.info

Track history (hours):
 
Tides and Currents Weather Stations Pressure Air Temp Water Temp Dewpoint Dewpoint Depression Visibility Wind Speed Wind Dir Waves Ship Positions

Aviator

Last reported at 2016-Jun-20 00:17 UTC. Time now 2016-Jun-25 19:45 UTC.
Position N 36°46' E 000°55'.

Length 140 m; draft 8.1 m.

Type: Ship. MMSI: 538003023.

Date/timePositionNaut miles runAvg speedWind from/ knotsBaromVisibWave heightAir tempDewpointWater temp
2016-Jun-20 00:17N 36°46' E 000°55'1112.9
2016-Jun-19 23:25N 36°44' E 000°42'2712.5
2016-Jun-19 21:15N 36°39' E 000°08'913.3
2016-Jun-19 20:33N 36°37' W 000°03'1313.2
2016-Jun-19 19:32N 36°35' W 000°20'1313.2
2016-Jun-19 18:33N 36°33' W 000°35'1313.1
2016-Jun-19 17:32N 36°31' W 000°52'1412.5
2016-Jun-19 16:26N 36°28' W 001°09'1112.8
2016-Jun-19 15:33N 36°26' W 001°22'2612.8
2016-Jun-19 13:32N 36°22' W 001°54'16412.6
2016-Jun-19 00:33N 35°60' W 005°15'10112.6
2016-Jun-18 16:33N 35°57' W 007°20'1312.9
2016-Jun-18 15:32N 35°57' W 007°36'1712.6
2016-Jun-18 14:13N 35°58' W 007°57'  
2016-Jun-16 04:21N 36°35' W 022°51'3512.4
2016-Jun-16 01:32N 36°37' W 023°34'1212.1
2016-Jun-16 00:33N 36°37' W 023°49'1212.3
2016-Jun-15 23:33N 36°37' W 024°04'1212.5
2016-Jun-15 22:34N 36°38' W 024°20'1212.3
2016-Jun-15 21:33N 36°39' W 024°35'1212.4
2016-Jun-15 20:33N 36°40' W 024°50'1312.6
2016-Jun-15 19:33N 36°40' W 025°06'1312.9
2016-Jun-15 18:33N 36°40' W 025°22'1312.6
2016-Jun-15 17:33N 36°41' W 025°38'1212.5
2016-Jun-15 16:33N 36°41' W 025°54'1312.7
2016-Jun-15 15:33N 36°40' W 026°09'1412.5
2016-Jun-15 14:26N 36°39' W 026°27'4912.2
2016-Jun-15 10:28N 36°40' W 027°27'1212.0
2016-Jun-15 09:26N 36°40' W 027°43'1212.2
2016-Jun-15 08:26N 36°40' W 027°58'1112.6
2016-Jun-15 07:33N 36°40' W 028°12'1312.9
2016-Jun-15 06:33N 36°40' W 028°28'1312.5
2016-Jun-15 05:33N 36°41' W 028°44'1212.5
2016-Jun-15 04:33N 36°41' W 028°59'1212.4
2016-Jun-15 03:33N 36°41' W 029°15'  
Track history (hours):
 
Tides and Currents Weather Stations Pressure Air Temp Water Temp Dewpoint Dewpoint Depression Visibility Wind Speed Wind Dir Waves Ship Positions

Aviator

Last reported at 2016-Jun-20 00:17 UTC. Time now 2016-Jun-25 19:45 UTC.
Position N 36°46' E 000°55'.

Length 140 m; draft 8.1 m.

Type: Ship. MMSI: 538003023.

Date/timePositionNaut miles runAvg speedWind from/ knotsBaromVisibWave heightAir tempDewpointWater temp
2016-Jun-20 00:17N 36°46' E 000°55'1112.9
2016-Jun-19 23:25N 36°44' E 000°42'2712.5
2016-Jun-19 21:15N 36°39' E 000°08'913.3
2016-Jun-19 20:33N 36°37' W 000°03'1313.2
2016-Jun-19 19:32N 36°35' W 000°20'1313.2
2016-Jun-19 18:33N 36°33' W 000°35'1313.1
2016-Jun-19 17:32N 36°31' W 000°52'1412.5
2016-Jun-19 16:26N 36°28' W 001°09'1112.8
2016-Jun-19 15:33N 36°26' W 001°22'2612.8
2016-Jun-19 13:32N 36°22' W 001°54'16412.6
2016-Jun-19 00:33N 35°60' W 005°15'10112.6
2016-Jun-18 16:33N 35°57' W 007°20'1312.9
2016-Jun-18 15:32N 35°57' W 007°36'1712.6
2016-Jun-18 14:13N 35°58' W 007°57'  
2016-Jun-16 04:21N 36°35' W 022°51'3512.4
2016-Jun-16 01:32N 36°37' W 023°34'1212.1
2016-Jun-16 00:33N 36°37' W 023°49'1212.3
2016-Jun-15 23:33N 36°37' W 024°04'1212.5
2016-Jun-15 22:34N 36°38' W 024°20'1212.3
2016-Jun-15 21:33N 36°39' W 024°35'1212.4
2016-Jun-15 20:33N 36°40' W 024°50'1312.6
2016-Jun-15 19:33N 36°40' W 025°06'1312.9
2016-Jun-15 18:33N 36°40' W 025°22'1312.6
2016-Jun-15 17:33N 36°41' W 025°38'1212.5
2016-Jun-15 16:33N 36°41' W 025°54'1312.7
2016-Jun-15 15:33N 36°40' W 026°09'1412.5
2016-Jun-15 14:26N 36°39' W 026°27'4912.2
2016-Jun-15 10:28N 36°40' W 027°27'1212.0
2016-Jun-15 09:26N 36°40' W 027°43'1212.2
2016-Jun-15 08:26N 36°40' W 027°58'1112.6
2016-Jun-15 07:33N 36°40' W 028°12'1312.9
2016-Jun-15 06:33N 36°40' W 028°28'1312.5
2016-Jun-15 05:33N 36°41' W 028°44'1212.5
2016-Jun-15 04:33N 36°41' W 028°59'1212.4
2016-Jun-15 03:33N 36°41' W 029°15'  

Dump ship's entire track history